createdAt,value
2023-05-18T00:01:14.467Z,90.90
2023-05-18T00:03:42.147Z,90.90
2023-05-18T00:06:10.346Z,90.90
2023-05-18T00:08:38.166Z,91.00
2023-05-18T00:11:06.655Z,91.00
2023-05-18T00:13:33.673Z,91.10
2023-05-18T00:16:01.958Z,91.10
2023-05-18T00:18:28.903Z,91.20
2023-05-18T00:20:58.704Z,91.20
2023-05-18T00:23:29.690Z,91.20
2023-05-18T00:25:57.667Z,91.20
2023-05-18T00:28:24.815Z,91.30
2023-05-18T00:30:51.794Z,91.30
2023-05-18T00:33:20.117Z,91.30
2023-05-18T00:35:47.119Z,91.30
2023-05-18T00:38:15.527Z,91.40
2023-05-18T00:40:42.916Z,91.30
2023-05-18T00:43:10.115Z,91.40
2023-05-18T00:45:37.100Z,91.40
2023-05-18T00:48:04.582Z,91.40
2023-05-18T00:50:33.284Z,91.40
2023-05-18T00:53:00.568Z,91.40
2023-05-18T00:55:28.715Z,91.40
2023-05-18T00:57:56.700Z,91.40
2023-05-18T01:00:24.036Z,91.70
2023-05-18T01:02:51.759Z,91.50
2023-05-18T01:05:20.166Z,91.50
2023-05-18T01:07:50.402Z,91.50
2023-05-18T01:10:19.812Z,91.50
2023-05-18T01:12:51.104Z,91.50
2023-05-18T01:15:20.529Z,91.50
2023-05-18T01:18:00.923Z,91.60
2023-05-18T01:20:37.854Z,91.60
2023-05-18T01:23:44.905Z,91.70
2023-05-18T01:26:17.617Z,91.70
2023-05-18T01:28:46.529Z,91.70
2023-05-18T01:31:16.035Z,91.70
2023-05-18T01:33:43.544Z,91.70
2023-05-18T01:36:11.070Z,91.70
2023-05-18T01:38:39.181Z,91.80
2023-05-18T01:41:14.872Z,91.80
2023-05-18T01:43:50.434Z,92.00
2023-05-18T01:46:28.239Z,91.80
2023-05-18T01:49:00.352Z,91.80
2023-05-18T01:51:32.759Z,91.80
2023-05-18T01:54:03.563Z,91.80
2023-05-18T01:56:31.984Z,91.90
2023-05-18T01:59:01.354Z,91.90
2023-05-18T02:01:28.399Z,91.90
2023-05-18T02:03:55.497Z,91.80
2023-05-18T02:06:22.533Z,91.80
2023-05-18T02:08:49.656Z,91.80
2023-05-18T02:11:16.551Z,91.80
2023-05-18T02:13:43.430Z,91.80
2023-05-18T02:16:11.840Z,91.70
2023-05-18T02:18:38.839Z,91.80
2023-05-18T02:21:05.785Z,91.80
2023-05-18T02:23:33.823Z,91.80
2023-05-18T02:26:01.078Z,91.80
2023-05-18T02:28:28.053Z,91.80
2023-05-18T02:30:54.899Z,91.80
2023-05-18T02:33:26.223Z,91.90
2023-05-18T02:35:53.577Z,91.90
2023-05-18T02:38:21.399Z,91.90
2023-05-18T02:40:48.489Z,91.90
2023-05-18T02:43:15.635Z,91.90
2023-05-18T02:45:42.512Z,91.90
2023-05-18T02:48:09.379Z,91.90
2023-05-18T02:50:37.718Z,92.00
2023-05-18T02:53:04.658Z,92.00
2023-05-18T02:55:31.717Z,92.00
2023-05-18T02:57:59.877Z,92.00
2023-05-18T03:00:26.752Z,92.00
2023-05-18T03:02:53.810Z,92.00
2023-05-18T03:05:23.831Z,92.00
2023-05-18T03:07:52.883Z,92.10
2023-05-18T03:10:20.072Z,92.10
2023-05-18T03:12:47.117Z,92.10
2023-05-18T03:15:16.173Z,92.10
2023-05-18T03:17:43.488Z,92.10
2023-05-18T03:20:15.528Z,92.20
2023-05-18T03:22:42.611Z,92.20
2023-05-18T03:25:10.914Z,92.20
2023-05-18T03:27:37.932Z,92.20
2023-05-18T03:30:06.084Z,92.20
2023-05-18T03:32:33.921Z,92.30
2023-05-18T03:35:04.766Z,92.30
2023-05-18T03:37:31.758Z,92.30
2023-05-18T03:40:00.532Z,92.30
2023-05-18T03:42:28.945Z,92.30
2023-05-18T03:44:55.871Z,92.40
2023-05-18T03:47:22.737Z,92.80
2023-05-18T03:49:49.648Z,92.40
2023-05-18T03:52:22.323Z,92.50
2023-05-18T03:54:49.809Z,92.50
2023-05-18T03:57:17.306Z,92.60
2023-05-18T03:59:46.075Z,92.60
2023-05-18T04:02:13.262Z,92.60
2023-05-18T04:04:45.961Z,92.70
2023-05-18T04:07:15.431Z,92.70
2023-05-18T04:09:43.144Z,92.70
2023-05-18T04:12:10.394Z,92.70
2023-05-18T04:14:37.403Z,92.70
2023-05-18T04:17:06.401Z,92.80
2023-05-18T04:19:33.691Z,92.80
2023-05-18T04:22:00.817Z,93.10
2023-05-18T04:24:27.729Z,92.80
2023-05-18T04:26:54.598Z,92.80
2023-05-18T04:29:22.519Z,92.80
2023-05-18T04:31:49.470Z,92.80
2023-05-18T04:34:20.691Z,92.80
2023-05-18T04:36:47.561Z,92.80
2023-05-18T04:39:15.020Z,92.80
2023-05-18T04:41:42.161Z,92.90
2023-05-18T04:44:09.635Z,92.90
2023-05-18T04:46:39.729Z,92.90
2023-05-18T04:49:06.784Z,92.90
2023-05-18T04:51:36.873Z,93.00
2023-05-18T04:54:04.126Z,92.90
2023-05-18T04:56:30.950Z,93.00
2023-05-18T04:58:59.477Z,93.00
2023-05-18T05:01:26.502Z,93.00
2023-05-18T05:03:53.476Z,93.00
2023-05-18T05:06:20.515Z,93.00
2023-05-18T05:08:48.791Z,93.10
2023-05-18T05:11:15.660Z,93.10
2023-05-18T05:13:42.675Z,93.20
2023-05-18T05:16:09.598Z,93.20
2023-05-18T05:18:36.516Z,93.20
2023-05-18T05:21:03.675Z,93.40
2023-05-18T05:23:30.588Z,93.20
2023-05-18T05:25:58.835Z,93.20
2023-05-18T05:28:25.755Z,93.20
2023-05-18T05:30:52.687Z,93.20
2023-05-18T05:33:19.621Z,93.10
2023-05-18T05:35:46.497Z,93.20
2023-05-18T05:38:13.431Z,93.10
2023-05-18T05:40:40.386Z,93.10
2023-05-18T05:43:08.636Z,93.10
2023-05-18T05:45:35.769Z,93.10
2023-05-18T05:48:02.662Z,93.10
2023-05-18T05:50:29.619Z,93.10
2023-05-18T05:52:56.497Z,93.10
2023-05-18T05:55:23.903Z,93.10
2023-05-18T05:57:50.840Z,93.10
2023-05-18T06:00:20.092Z,93.00
2023-05-18T06:02:48.000Z,93.00
2023-05-18T06:05:14.976Z,93.00
2023-05-18T06:07:41.936Z,93.00
2023-05-18T06:10:09.144Z,92.90
2023-05-18T06:12:36.026Z,92.90
2023-05-18T06:15:02.973Z,92.90
2023-05-18T06:17:31.260Z,92.90
2023-05-18T06:19:58.197Z,92.90
2023-05-18T06:22:25.562Z,92.90
2023-05-18T06:24:52.484Z,92.90
2023-05-18T06:27:19.571Z,92.90
2023-05-18T06:29:46.516Z,92.90
2023-05-18T06:32:13.781Z,92.80
2023-05-18T06:34:42.818Z,92.70
2023-05-18T06:37:11.442Z,92.80
2023-05-18T06:39:38.859Z,92.80
2023-05-18T06:42:06.293Z,92.80
2023-05-18T06:44:33.580Z,92.80
2023-05-18T06:47:00.795Z,92.70
2023-05-18T06:49:28.246Z,92.70
2023-05-18T06:51:56.536Z,92.70
2023-05-18T06:54:23.375Z,92.60
2023-05-18T06:56:50.461Z,92.50
2023-05-18T06:59:17.351Z,92.40
2023-05-18T07:01:44.248Z,92.30
2023-05-18T07:04:11.205Z,92.20
2023-05-18T07:06:38.365Z,92.10
2023-05-18T07:09:08.019Z,92.10
2023-05-18T07:11:34.998Z,92.10
2023-05-18T07:14:01.877Z,92.00
2023-05-18T07:16:28.967Z,92.00
2023-05-18T07:18:57.793Z,91.90
2023-05-18T07:21:24.845Z,91.90
2023-05-18T07:23:52.682Z,91.80
2023-05-18T07:26:22.442Z,91.70
2023-05-18T07:28:51.234Z,91.60
2023-05-18T07:31:21.101Z,91.50
2023-05-18T07:33:48.325Z,91.40
2023-05-18T07:36:15.416Z,91.20
2023-05-18T07:38:42.365Z,91.20
2023-05-18T07:41:09.366Z,91.20
2023-05-18T07:43:37.934Z,91.20
2023-05-18T07:46:05.331Z,91.30
2023-05-18T07:48:32.219Z,91.20
2023-05-18T07:50:59.521Z,91.10
2023-05-18T07:53:26.434Z,91.10
2023-05-18T07:55:53.586Z,91.00
2023-05-18T07:58:20.448Z,91.00
2023-05-18T08:00:48.823Z,91.00
2023-05-18T08:03:16.205Z,90.80
2023-05-18T08:05:43.217Z,90.80
2023-05-18T08:08:11.821Z,90.80
2023-05-18T08:10:38.844Z,90.70
2023-05-18T08:13:05.715Z,90.70
2023-05-18T08:15:32.730Z,90.70
2023-05-18T08:18:01.429Z,90.60
2023-05-18T08:20:31.622Z,90.50
2023-05-18T08:22:58.582Z,90.50
2023-05-18T08:25:25.922Z,90.50
2023-05-18T08:27:53.377Z,90.50
2023-05-18T08:30:21.580Z,90.50
2023-05-18T08:32:48.630Z,90.20
2023-05-18T08:35:17.510Z,90.20
2023-05-18T08:37:44.557Z,90.20
2023-05-18T08:40:12.920Z,90.00
2023-05-18T08:42:50.357Z,89.60
2023-05-18T08:45:23.857Z,89.70
2023-05-18T08:47:51.566Z,89.80
2023-05-18T08:50:24.135Z,89.50
2023-05-18T08:52:55.570Z,90.00
2023-05-18T08:55:23.706Z,89.30
2023-05-18T08:57:56.313Z,89.10
2023-05-18T09:00:24.701Z,88.80
2023-05-18T09:02:52.194Z,88.70
2023-05-18T09:05:21.915Z,88.40
2023-05-18T09:07:51.140Z,88.10
2023-05-18T09:10:18.818Z,88.10
2023-05-18T09:12:48.611Z,87.90
2023-05-18T09:15:17.406Z,87.60
2023-05-18T09:17:44.323Z,87.20
2023-05-18T09:20:12.217Z,86.90
2023-05-18T09:22:40.824Z,86.40
2023-05-18T09:25:10.675Z,86.00
2023-05-18T09:27:38.231Z,86.30
2023-05-18T09:30:10.139Z,86.20
2023-05-18T09:32:37.241Z,85.90
2023-05-18T09:35:04.978Z,84.30
2023-05-18T09:37:32.252Z,84.00
2023-05-18T09:40:01.636Z,83.80
2023-05-18T09:42:36.949Z,84.10
2023-05-18T09:45:04.217Z,84.10
2023-05-18T09:47:33.022Z,84.00
2023-05-18T09:49:59.988Z,83.70
2023-05-18T09:52:26.949Z,83.50
2023-05-18T09:55:00.911Z,83.10
2023-05-18T09:57:27.928Z,82.60
2023-05-18T10:00:03.426Z,82.30
2023-05-18T10:02:31.084Z,81.70
2023-05-18T10:04:58.734Z,81.50
2023-05-18T10:07:25.974Z,81.00
2023-05-18T10:10:03.579Z,80.30
2023-05-18T10:12:30.645Z,79.80
2023-05-18T10:14:57.584Z,79.60
2023-05-18T10:17:26.361Z,79.60
2023-05-18T10:19:55.802Z,79.70
2023-05-18T10:22:23.454Z,79.60
2023-05-18T10:24:52.752Z,79.20
2023-05-18T10:27:26.807Z,79.00
2023-05-18T10:29:55.052Z,78.60
2023-05-18T10:32:24.227Z,78.70
2023-05-18T10:34:52.879Z,78.40
2023-05-18T10:37:22.787Z,78.40
2023-05-18T10:39:51.430Z,78.20
2023-05-18T10:42:21.081Z,78.10
2023-05-18T10:44:50.372Z,78.00
2023-05-18T10:47:19.403Z,77.70
2023-05-18T10:49:48.617Z,77.30
2023-05-18T10:52:17.837Z,76.70
2023-05-18T10:54:45.665Z,77.00
2023-05-18T10:57:16.710Z,77.00
2023-05-18T10:59:48.232Z,76.70
2023-05-18T11:02:18.496Z,76.20
2023-05-18T11:04:47.728Z,75.60
2023-05-18T11:07:15.583Z,75.50
2023-05-18T11:09:43.228Z,76.30
2023-05-18T11:12:14.055Z,75.40
2023-05-18T11:14:50.479Z,75.10
2023-05-18T11:17:19.383Z,74.90
2023-05-18T11:20:13.380Z,74.80
2023-05-18T11:22:46.871Z,74.50
2023-05-18T11:25:48.504Z,74.40
2023-05-18T11:28:15.675Z,73.20
2023-05-18T11:30:51.138Z,73.20
2023-05-18T11:33:24.158Z,73.10
2023-05-18T11:35:58.625Z,72.90
2023-05-18T11:38:53.494Z,72.40
2023-05-18T11:41:35.049Z,71.60
2023-05-18T11:44:10.094Z,71.60
2023-05-18T11:46:39.980Z,72.30
2023-05-18T11:49:08.447Z,71.60
2023-05-18T11:52:01.657Z,71.60
2023-05-18T11:54:29.122Z,71.20
2023-05-18T11:56:56.117Z,71.00
2023-05-18T11:59:33.767Z,70.50
2023-05-18T12:02:03.879Z,70.00
2023-05-18T12:04:32.539Z,69.80
2023-05-18T12:07:00.828Z,69.60
2023-05-18T12:09:30.485Z,69.60
2023-05-18T12:11:57.406Z,68.90
2023-05-18T12:14:25.100Z,68.40
2023-05-18T12:16:53.558Z,68.10
2023-05-18T12:19:23.627Z,67.70
2023-05-18T12:21:51.110Z,67.60
2023-05-18T12:24:18.051Z,67.40
2023-05-18T12:26:46.623Z,67.00
2023-05-18T12:29:19.761Z,67.00
2023-05-18T12:31:48.059Z,66.90
2023-05-18T12:34:15.374Z,66.30
2023-05-18T12:36:52.483Z,65.60
2023-05-18T12:39:19.388Z,65.10
2023-05-18T12:41:46.709Z,65.10
2023-05-18T12:44:13.658Z,65.10
2023-05-18T12:46:41.741Z,65.00
2023-05-18T12:49:09.340Z,64.80
2023-05-18T12:51:37.978Z,65.30
2023-05-18T12:54:07.126Z,65.80
2023-05-18T12:56:51.619Z,65.60
2023-05-18T12:59:19.710Z,65.30
2023-05-18T13:01:46.769Z,65.60
2023-05-18T13:04:14.417Z,65.80
2023-05-18T13:06:42.412Z,66.00
2023-05-18T13:09:12.454Z,65.80
2023-05-18T13:11:39.527Z,65.60
2023-05-18T13:14:08.024Z,65.30
2023-05-18T13:16:38.338Z,65.00
2023-05-18T13:19:07.122Z,65.30
2023-05-18T13:21:34.823Z,65.40
2023-05-18T13:24:01.944Z,65.50
2023-05-18T13:26:31.235Z,65.50
2023-05-18T13:28:58.411Z,65.70
2023-05-18T13:31:25.437Z,65.50
2023-05-18T13:33:52.574Z,65.40
2023-05-18T13:36:19.579Z,65.70
2023-05-18T13:38:46.524Z,65.30
2023-05-18T13:41:15.248Z,65.10
2023-05-18T13:43:43.710Z,64.70
2023-05-18T13:46:10.722Z,64.50
2023-05-18T13:48:37.772Z,64.50
2023-05-18T13:51:04.790Z,64.30
2023-05-18T13:53:31.734Z,65.00
2023-05-18T13:55:58.690Z,64.60
2023-05-18T13:58:25.656Z,65.00
2023-05-18T14:00:54.687Z,64.80
2023-05-18T14:03:21.908Z,64.40
2023-05-18T14:05:49.259Z,64.10
2023-05-18T14:08:16.236Z,63.90
2023-05-18T14:10:43.262Z,64.10
2023-05-18T14:13:10.220Z,64.20
2023-05-18T14:15:37.135Z,64.00
2023-05-18T14:18:05.855Z,64.00
2023-05-18T14:20:33.820Z,64.10
2023-05-18T14:23:03.640Z,64.10
2023-05-18T14:25:31.442Z,63.90
2023-05-18T14:27:58.345Z,63.80
2023-05-18T14:30:25.227Z,64.00
2023-05-18T14:32:52.243Z,64.00
2023-05-18T14:35:20.497Z,64.00
2023-05-18T14:37:47.411Z,64.40
2023-05-18T14:40:14.328Z,64.50
2023-05-18T14:42:41.244Z,64.30
2023-05-18T14:45:09.404Z,64.20
2023-05-18T14:47:36.294Z,64.00
2023-05-18T14:50:03.360Z,64.10
2023-05-18T14:52:31.576Z,64.30
2023-05-18T14:54:58.481Z,64.60
2023-05-18T14:57:26.824Z,64.70
2023-05-18T14:59:54.098Z,64.40
2023-05-18T15:02:21.176Z,64.50
2023-05-18T15:04:48.153Z,64.70
2023-05-18T15:07:15.030Z,64.80
2023-05-18T15:09:43.367Z,64.90
2023-05-18T15:12:10.667Z,65.40
2023-05-18T15:14:38.126Z,65.80
2023-05-18T15:17:07.443Z,65.60
2023-05-18T15:19:34.495Z,65.90
2023-05-18T15:22:01.434Z,66.00
2023-05-18T15:24:28.417Z,65.60
2023-05-18T15:26:56.921Z,64.90
2023-05-18T15:29:23.839Z,64.80
2023-05-18T15:31:51.520Z,65.00
2023-05-18T15:34:18.616Z,65.30
2023-05-18T15:36:46.101Z,65.80
2023-05-18T15:39:13.179Z,65.90
2023-05-18T15:41:40.153Z,65.80
2023-05-18T15:44:08.402Z,65.80
2023-05-18T15:46:35.943Z,65.90
2023-05-18T15:49:03.869Z,65.80
2023-05-18T15:51:31.267Z,65.80
2023-05-18T15:53:58.146Z,65.90
2023-05-18T15:56:25.219Z,66.00
2023-05-18T15:58:52.105Z,66.20
2023-05-18T16:01:20.401Z,66.50
2023-05-18T16:03:47.460Z,66.70
2023-05-18T16:06:14.437Z,66.80
2023-05-18T16:08:41.416Z,67.00
2023-05-18T16:11:08.326Z,66.80
2023-05-18T16:13:35.469Z,66.80
2023-05-18T16:16:03.462Z,67.10
2023-05-18T16:18:31.853Z,67.40
2023-05-18T16:20:58.832Z,68.50
2023-05-18T16:23:25.889Z,68.00
2023-05-18T16:25:52.812Z,68.30
2023-05-18T16:28:19.685Z,69.20
2023-05-18T16:30:46.668Z,68.70
2023-05-18T16:33:13.785Z,69.00
2023-05-18T16:35:42.198Z,69.10
2023-05-18T16:38:09.111Z,69.20
2023-05-18T16:40:35.977Z,69.20
2023-05-18T16:43:02.888Z,69.10
2023-05-18T16:45:29.868Z,69.20
2023-05-18T16:47:56.902Z,69.30
2023-05-18T16:50:24.147Z,69.60
2023-05-18T16:52:52.431Z,69.90
2023-05-18T16:55:19.612Z,69.90
2023-05-18T16:57:46.539Z,70.00
2023-05-18T17:00:14.464Z,70.00
2023-05-18T17:02:41.681Z,70.00
2023-05-18T17:05:09.369Z,70.10
2023-05-18T17:07:37.213Z,70.30
2023-05-18T17:10:06.905Z,70.30
2023-05-18T17:12:33.860Z,70.50
2023-05-18T17:15:02.656Z,70.90
2023-05-18T17:17:29.784Z,71.20
2023-05-18T17:19:56.760Z,71.60
2023-05-18T17:22:23.819Z,71.90
2023-05-18T17:24:50.840Z,72.00
2023-05-18T17:27:19.113Z,72.10
2023-05-18T17:29:46.073Z,72.30
2023-05-18T17:32:13.052Z,72.50
2023-05-18T17:34:40.546Z,72.80
2023-05-18T17:37:07.604Z,73.10
2023-05-18T17:39:34.584Z,73.10
2023-05-18T17:42:01.795Z,73.20
2023-05-18T17:44:31.026Z,73.30
2023-05-18T17:46:58.683Z,73.30
2023-05-18T17:49:25.732Z,73.40
2023-05-18T17:51:52.769Z,73.40
2023-05-18T17:54:19.687Z,73.50
2023-05-18T17:56:46.637Z,73.60
2023-05-18T17:59:13.642Z,73.80
2023-05-18T18:01:43.062Z,74.10
2023-05-18T18:04:10.525Z,74.30
2023-05-18T18:06:37.551Z,74.50
2023-05-18T18:09:05.052Z,74.60
2023-05-18T18:11:32.118Z,74.70
2023-05-18T18:13:59.881Z,74.90
2023-05-18T18:16:26.937Z,75.10
2023-05-18T18:18:56.694Z,75.30
2023-05-18T18:21:23.770Z,75.30
2023-05-18T18:23:50.625Z,75.40
2023-05-18T18:26:17.936Z,75.40
2023-05-18T18:28:44.906Z,75.40
2023-05-18T18:31:11.808Z,75.30
2023-05-18T18:33:38.720Z,75.40
2023-05-18T18:36:07.796Z,75.30
2023-05-18T18:38:34.761Z,75.40
2023-05-18T18:41:04.349Z,75.50
2023-05-18T18:43:31.771Z,75.50
2023-05-18T18:45:59.338Z,75.50
2023-05-18T18:48:26.723Z,75.50
2023-05-18T18:50:53.973Z,75.60
2023-05-18T18:53:22.286Z,75.70
2023-05-18T18:55:49.293Z,75.80
2023-05-18T18:58:16.753Z,75.90
2023-05-18T19:00:43.927Z,76.00
2023-05-18T19:03:10.987Z,76.10
2023-05-18T19:05:38.695Z,76.10
2023-05-18T19:08:06.159Z,76.20
2023-05-18T19:10:35.000Z,76.20
2023-05-18T19:13:05.654Z,76.30
2023-05-18T19:15:33.383Z,76.40
2023-05-18T19:18:01.030Z,76.60
2023-05-18T19:20:28.094Z,76.70
2023-05-18T19:22:55.033Z,76.90
2023-05-18T19:25:24.585Z,77.10
2023-05-18T19:27:53.441Z,77.10
2023-05-18T19:30:23.586Z,77.30
2023-05-18T19:32:51.448Z,77.40
2023-05-18T19:35:19.908Z,77.50
2023-05-18T19:37:47.332Z,77.60
2023-05-18T19:40:14.294Z,78.60
2023-05-18T19:42:41.264Z,78.00
2023-05-18T19:45:09.812Z,78.00
2023-05-18T19:47:36.855Z,78.20
2023-05-18T19:50:04.614Z,78.20
2023-05-18T19:52:33.357Z,78.40
2023-05-18T19:55:00.554Z,78.50
2023-05-18T19:57:27.588Z,78.60
2023-05-18T19:59:54.575Z,78.60
2023-05-18T20:02:22.906Z,78.70
2023-05-18T20:04:50.477Z,78.80
2023-05-18T20:07:18.076Z,79.60
2023-05-18T20:09:45.112Z,79.00
2023-05-18T20:12:12.115Z,79.10
2023-05-18T20:14:39.201Z,79.00
2023-05-18T20:17:06.327Z,79.00
2023-05-18T20:19:37.757Z,79.00
2023-05-18T20:22:05.540Z,79.20
2023-05-18T20:24:32.606Z,79.20
2023-05-18T20:26:59.690Z,79.30
2023-05-18T20:29:26.936Z,79.20
2023-05-18T20:31:54.706Z,79.30
2023-05-18T20:34:22.131Z,79.40
2023-05-18T20:36:50.525Z,80.30
2023-05-18T20:39:17.669Z,79.70
2023-05-18T20:41:45.400Z,79.80
2023-05-18T20:44:17.525Z,79.80
2023-05-18T20:46:44.580Z,79.90
2023-05-18T20:49:14.126Z,79.90
2023-05-18T20:51:41.114Z,79.90
2023-05-18T20:54:09.388Z,80.00
2023-05-18T20:56:36.497Z,80.10
2023-05-18T20:59:06.166Z,80.10
2023-05-18T21:01:39.277Z,80.20
2023-05-18T21:04:06.976Z,80.70
2023-05-18T21:06:34.516Z,80.70
2023-05-18T21:09:01.621Z,80.70
2023-05-18T21:11:30.897Z,80.60
2023-05-18T21:13:57.759Z,80.70
2023-05-18T21:16:24.958Z,80.70
2023-05-18T21:18:52.784Z,80.90
2023-05-18T21:21:19.674Z,81.00
2023-05-18T21:23:46.627Z,81.20
2023-05-18T21:26:13.640Z,81.40
2023-05-18T21:28:41.897Z,81.70
2023-05-18T21:31:08.928Z,81.90
2023-05-18T21:33:36.160Z,82.20
2023-05-18T21:36:04.097Z,82.40
2023-05-18T21:38:31.245Z,82.70
2023-05-18T21:40:58.553Z,82.90
2023-05-18T21:43:25.555Z,83.10
2023-05-18T21:45:53.941Z,83.20
2023-05-18T21:48:20.896Z,83.50
2023-05-18T21:50:47.838Z,83.70
2023-05-18T21:53:15.010Z,83.80
2023-05-18T21:55:41.875Z,83.90
2023-05-18T21:58:08.853Z,84.00
2023-05-18T22:00:36.406Z,84.00
2023-05-18T22:03:04.726Z,84.20
2023-05-18T22:05:31.780Z,84.30
2023-05-18T22:07:59.150Z,84.20
2023-05-18T22:10:26.236Z,84.20
2023-05-18T22:12:53.135Z,84.20
2023-05-18T22:15:22.275Z,84.30
2023-05-18T22:17:49.416Z,84.40
2023-05-18T22:20:17.685Z,84.40
2023-05-18T22:22:44.714Z,84.40
2023-05-18T22:25:12.652Z,84.60
2023-05-18T22:27:39.652Z,84.60
2023-05-18T22:30:07.512Z,84.70
2023-05-18T22:32:34.589Z,84.90
2023-05-18T22:35:01.728Z,85.00
2023-05-18T22:37:29.969Z,85.00
2023-05-18T22:39:56.909Z,85.00
2023-05-18T22:42:23.817Z,85.10
2023-05-18T22:44:51.285Z,85.20
2023-05-18T22:47:21.394Z,85.30
2023-05-18T22:49:49.078Z,85.40
2023-05-18T22:52:17.818Z,85.60
2023-05-18T22:54:46.290Z,85.60
2023-05-18T22:57:13.551Z,85.80
2023-05-18T22:59:40.441Z,85.80
2023-05-18T23:02:07.509Z,86.00
2023-05-18T23:04:35.268Z,86.00
2023-05-18T23:07:03.998Z,86.10
2023-05-18T23:09:31.274Z,86.30
2023-05-18T23:12:01.011Z,86.30
2023-05-18T23:14:32.532Z,86.50
2023-05-18T23:16:59.644Z,86.50
2023-05-18T23:19:27.002Z,86.60
2023-05-18T23:21:54.030Z,86.80
2023-05-18T23:24:21.087Z,86.80
2023-05-18T23:26:48.338Z,86.80
2023-05-18T23:29:16.626Z,86.80
2023-05-18T23:31:43.531Z,87.00
2023-05-18T23:34:11.127Z,87.00
2023-05-18T23:36:39.539Z,87.20
2023-05-18T23:39:07.145Z,87.20
2023-05-18T23:41:35.832Z,87.20
2023-05-18T23:44:03.391Z,87.30
2023-05-18T23:46:34.278Z,87.50
2023-05-18T23:49:01.797Z,87.40
2023-05-18T23:51:32.043Z,87.60
2023-05-18T23:54:00.314Z,87.60
2023-05-18T23:56:28.179Z,87.60
2023-05-18T23:58:55.473Z,87.60
